createdAt,value
2023-02-05T00:01:25.515Z,13.51
2023-02-05T00:06:31.776Z,13.36
2023-02-05T00:11:35.581Z,13.49
2023-02-05T00:16:39.225Z,13.44
2023-02-05T00:21:44.559Z,13.41
2023-02-05T00:26:48.238Z,13.44
2023-02-05T00:31:54.029Z,13.36
2023-02-05T00:36:59.355Z,13.40
2023-02-05T00:42:02.972Z,13.35
2023-02-05T00:47:06.607Z,13.34
2023-02-05T00:52:11.954Z,13.20
2023-02-05T00:57:15.630Z,13.25
2023-02-05T01:02:19.787Z,13.20
2023-02-05T01:07:25.083Z,12.96
2023-02-05T01:12:28.802Z,13.04
2023-02-05T01:17:32.451Z,12.98
2023-02-05T01:22:38.091Z,12.96
2023-02-05T01:27:41.823Z,12.93
2023-02-05T01:32:45.496Z,12.84
2023-02-05T01:37:50.849Z,12.84
2023-02-05T01:42:54.460Z,12.91
2023-02-05T01:47:59.615Z,12.76
2023-02-05T01:53:09.460Z,12.91
2023-02-05T01:58:14.191Z,12.98
2023-02-05T02:03:18.903Z,12.88
2023-02-05T02:08:24.230Z,12.88
2023-02-05T02:13:30.409Z,12.68
2023-02-05T02:18:34.122Z,12.92
2023-02-05T02:23:50.094Z,12.88
2023-02-05T02:28:57.742Z,12.72
2023-02-05T02:34:09.797Z,12.78
2023-02-05T02:39:17.522Z,12.81
2023-02-05T02:44:29.443Z,12.79
2023-02-05T02:49:37.477Z,12.77
2023-02-05T02:54:43.286Z,12.69
2023-02-05T02:59:51.723Z,12.60
2023-02-05T03:04:58.045Z,12.62
2023-02-05T03:10:04.778Z,12.62
2023-02-05T03:15:11.943Z,12.73
2023-02-05T03:20:21.754Z,12.65
2023-02-05T03:25:29.447Z,12.60
2023-02-05T03:30:42.015Z,12.61
2023-02-05T03:35:55.468Z,12.73
2023-02-05T03:41:08.545Z,12.72
2023-02-05T03:46:21.095Z,12.68
2023-02-05T03:51:32.493Z,12.71
2023-02-05T03:56:44.413Z,12.66
2023-02-05T04:01:49.904Z,12.82
2023-02-05T04:06:54.186Z,12.77
2023-02-05T04:11:57.822Z,12.68
2023-02-05T04:17:03.113Z,12.73
2023-02-05T04:22:06.766Z,12.68
2023-02-05T04:27:10.393Z,12.53
2023-02-05T04:32:15.904Z,12.44
2023-02-05T04:37:19.529Z,12.25
2023-02-05T04:42:23.791Z,12.37
2023-02-05T04:47:31.376Z,12.23
2023-02-05T04:52:35.000Z,12.09
2023-02-05T04:57:38.756Z,11.96
2023-02-05T05:02:44.073Z,11.97
2023-02-05T05:07:47.707Z,11.92
2023-02-05T05:12:51.298Z,11.84
2023-02-05T05:17:56.595Z,11.81
2023-02-05T05:23:01.713Z,11.84
2023-02-05T05:28:05.612Z,11.84
2023-02-05T05:33:11.530Z,11.73
2023-02-05T05:38:15.170Z,11.73
2023-02-05T05:43:21.334Z,11.79
2023-02-05T05:48:26.013Z,11.72
2023-02-05T05:53:29.806Z,11.78
2023-02-05T05:58:33.413Z,11.83
2023-02-05T06:03:38.698Z,11.84
2023-02-05T06:08:42.340Z,11.89
2023-02-05T06:13:45.979Z,11.89
2023-02-05T06:18:51.270Z,11.89
2023-02-05T06:23:54.934Z,11.85
2023-02-05T06:28:58.574Z,11.68
2023-02-05T06:34:03.881Z,11.61
2023-02-05T06:39:07.510Z,11.57
2023-02-05T06:44:11.143Z,11.51
2023-02-05T06:49:16.585Z,11.50
2023-02-05T06:54:20.210Z,11.48
2023-02-05T06:59:23.947Z,11.49
2023-02-05T07:04:29.296Z,11.39
2023-02-05T07:09:32.995Z,11.50
2023-02-05T07:14:38.539Z,11.58
2023-02-05T07:19:44.638Z,11.52
2023-02-05T07:24:48.438Z,11.52
2023-02-05T07:29:52.060Z,11.68
2023-02-05T07:34:57.375Z,11.57
2023-02-05T07:40:01.042Z,11.56
2023-02-05T07:45:05.007Z,11.63
2023-02-05T07:50:10.694Z,11.69
2023-02-05T07:55:14.303Z,11.80
2023-02-05T08:00:18.287Z,11.67
2023-02-05T08:05:23.544Z,11.67
2023-02-05T08:10:27.407Z,11.73
2023-02-05T08:15:31.018Z,11.52
2023-02-05T08:20:36.322Z,11.25
2023-02-05T08:25:40.328Z,11.29
2023-02-05T08:30:44.060Z,11.27
2023-02-05T08:35:49.346Z,11.31
2023-02-05T08:40:52.976Z,11.24
2023-02-05T08:45:56.667Z,11.15
2023-02-05T08:51:01.985Z,11.14
2023-02-05T08:56:05.913Z,11.09
2023-02-05T09:01:11.211Z,11.16
2023-02-05T09:06:17.367Z,11.08
2023-02-05T09:11:23.058Z,10.81
2023-02-05T09:16:27.249Z,10.79
2023-02-05T09:21:32.600Z,10.83
2023-02-05T09:26:36.322Z,10.88
2023-02-05T09:31:42.324Z,10.93
2023-02-05T09:36:47.719Z,11.03
2023-02-05T09:42:00.486Z,11.02
2023-02-05T09:47:08.921Z,11.09
2023-02-05T09:52:26.384Z,11.11
2023-02-05T09:57:34.860Z,11.07
2023-02-05T10:02:46.070Z,11.13
2023-02-05T10:07:59.167Z,11.04
2023-02-05T10:13:28.177Z,10.99
2023-02-05T10:18:42.312Z,10.99
2023-02-05T10:24:07.114Z,11.03
2023-02-05T10:29:29.851Z,11.02
2023-02-05T10:34:50.033Z,10.99
2023-02-05T10:39:58.363Z,11.04
2023-02-05T10:45:07.273Z,10.97
2023-02-05T10:50:24.355Z,10.85
2023-02-05T10:55:30.127Z,10.95
2023-02-05T11:00:34.618Z,10.88
2023-02-05T11:05:41.260Z,10.88
2023-02-05T11:10:54.335Z,10.85
2023-02-05T11:16:00.379Z,10.88
2023-02-05T11:21:06.057Z,10.86
2023-02-05T11:26:17.869Z,10.94
2023-02-05T11:31:25.637Z,10.96
2023-02-05T11:36:29.453Z,11.07
2023-02-05T11:41:37.482Z,11.13
2023-02-05T11:46:45.862Z,11.15
2023-02-05T11:51:53.511Z,11.19
2023-02-05T11:57:27.938Z,11.12
2023-02-05T12:02:36.414Z,10.58
2023-02-05T12:07:44.939Z,10.15
2023-02-05T12:13:01.591Z,9.81
2023-02-05T12:18:18.750Z,9.77
2023-02-05T12:23:34.555Z,9.90
2023-02-05T12:28:50.950Z,9.93
2023-02-05T12:34:17.832Z,9.89
2023-02-05T12:39:37.442Z,9.83
2023-02-05T12:45:03.189Z,9.90
2023-02-05T12:50:23.233Z,9.74
2023-02-05T12:55:41.120Z,9.68
2023-02-05T13:00:52.438Z,9.86
2023-02-05T13:06:00.660Z,10.06
2023-02-05T13:11:12.522Z,10.16
2023-02-05T13:16:18.978Z,10.38
2023-02-05T13:21:23.407Z,10.46
2023-02-05T13:26:33.094Z,10.50
2023-02-05T13:31:40.666Z,10.58
2023-02-05T13:37:25.480Z,10.60
2023-02-05T13:42:55.200Z,10.67
2023-02-05T13:48:27.704Z,10.61
2023-02-05T13:53:50.583Z,10.64
2023-02-05T13:58:57.610Z,10.53
2023-02-05T14:04:03.357Z,10.61
2023-02-05T14:09:11.687Z,10.54
2023-02-05T14:14:31.024Z,10.59
2023-02-05T14:19:53.246Z,10.39
2023-02-05T14:24:58.528Z,10.32
2023-02-05T14:30:33.888Z,10.24
2023-02-05T14:35:39.062Z,10.17
2023-02-05T14:40:44.475Z,10.21
2023-02-05T14:45:51.744Z,10.15
2023-02-05T14:51:08.084Z,10.18
2023-02-05T14:56:25.779Z,10.24
2023-02-05T15:01:47.397Z,10.37
2023-02-05T15:06:53.138Z,10.43
2023-02-05T15:12:19.298Z,10.42
2023-02-05T15:17:58.739Z,10.42
2023-02-05T15:23:07.132Z,10.50
2023-02-05T15:28:27.869Z,10.60
2023-02-05T15:33:43.876Z,10.58
2023-02-05T15:38:53.408Z,10.52
2023-02-05T15:44:03.899Z,10.42
2023-02-05T15:49:08.884Z,10.40
2023-02-05T15:54:19.696Z,10.31
2023-02-05T15:59:28.389Z,10.12
2023-02-05T16:04:34.807Z,10.13
2023-02-05T16:09:38.482Z,10.30
2023-02-05T16:14:43.791Z,10.44
2023-02-05T16:19:50.784Z,10.63
2023-02-05T16:24:59.604Z,10.81
2023-02-05T16:30:08.510Z,10.88
2023-02-05T16:35:23.128Z,11.23
2023-02-05T16:40:34.471Z,11.60
2023-02-05T16:45:39.949Z,11.17
2023-02-05T16:50:44.959Z,10.88
2023-02-05T16:55:49.581Z,10.44
2023-02-05T17:01:00.454Z,10.22
2023-02-05T17:06:13.589Z,10.16
2023-02-05T17:11:36.546Z,10.54
2023-02-05T17:16:43.273Z,11.29
2023-02-05T17:21:46.922Z,11.75
2023-02-05T17:26:50.558Z,12.22
2023-02-05T17:31:55.906Z,12.32
2023-02-05T17:36:59.657Z,12.45
2023-02-05T17:42:03.326Z,12.13
2023-02-05T17:47:12.562Z,11.98
2023-02-05T17:52:16.547Z,12.44
2023-02-05T17:57:22.077Z,12.82
2023-02-05T18:02:27.789Z,12.60
2023-02-05T18:07:33.914Z,13.03
2023-02-05T18:12:37.547Z,12.83
2023-02-05T18:17:42.886Z,12.01
2023-02-05T18:22:46.511Z,12.12
2023-02-05T18:27:50.196Z,11.66
2023-02-05T18:32:56.589Z,12.41
2023-02-05T18:38:00.200Z,13.09
2023-02-05T18:43:03.813Z,13.25
2023-02-05T18:48:09.084Z,12.93
2023-02-05T18:53:12.740Z,13.68
2023-02-05T18:58:16.363Z,13.64
2023-02-05T19:03:21.661Z,13.05
2023-02-05T19:08:25.335Z,12.63
2023-02-05T19:13:28.998Z,12.19
2023-02-05T19:18:35.224Z,12.09
2023-02-05T19:23:39.329Z,12.82
2023-02-05T19:28:44.068Z,13.18
2023-02-05T19:33:49.372Z,13.40
2023-02-05T19:38:53.016Z,13.54
2023-02-05T19:43:57.949Z,13.75
2023-02-05T19:49:04.926Z,13.77
2023-02-05T19:54:08.636Z,13.66
2023-02-05T19:59:12.791Z,13.89
2023-02-05T20:04:18.942Z,14.27
2023-02-05T20:09:22.575Z,14.47
2023-02-05T20:14:26.246Z,14.67
2023-02-05T20:19:31.558Z,14.55
2023-02-05T20:24:35.266Z,14.70
2023-02-05T20:29:39.015Z,14.48
2023-02-05T20:34:44.288Z,14.41
2023-02-05T20:39:48.167Z,14.25
2023-02-05T20:44:51.774Z,14.58
2023-02-05T20:49:57.024Z,14.65
2023-02-05T20:55:00.678Z,14.73
2023-02-05T21:00:04.671Z,14.71
2023-02-05T21:05:11.698Z,14.49
2023-02-05T21:10:15.360Z,14.12
2023-02-05T21:15:19.087Z,13.59
2023-02-05T21:20:24.341Z,13.29
2023-02-05T21:25:28.345Z,13.70
2023-02-05T21:30:31.986Z,14.06
2023-02-05T21:35:40.334Z,13.80
2023-02-05T21:40:43.982Z,13.95
2023-02-05T21:45:47.648Z,13.69
2023-02-05T21:50:52.925Z,13.62
2023-02-05T21:55:56.548Z,13.28
2023-02-05T22:01:10.959Z,12.40
2023-02-05T22:06:16.274Z,11.35
2023-02-05T22:11:21.759Z,11.22
2023-02-05T22:16:26.534Z,11.06
2023-02-05T22:21:33.346Z,11.34
2023-02-05T22:26:38.730Z,11.54
2023-02-05T22:31:42.911Z,11.50
2023-02-05T22:36:48.344Z,11.68
2023-02-05T22:41:51.989Z,11.72
2023-02-05T22:46:55.665Z,11.66
2023-02-05T22:52:00.929Z,11.81
2023-02-05T22:57:04.582Z,12.03
2023-02-05T23:02:08.241Z,12.34
2023-02-05T23:07:13.490Z,12.29
2023-02-05T23:12:17.119Z,12.33
2023-02-05T23:17:21.356Z,12.00
2023-02-05T23:22:26.674Z,11.90
2023-02-05T23:27:32.367Z,11.49
2023-02-05T23:32:35.965Z,11.70
2023-02-05T23:37:42.098Z,11.86
2023-02-05T23:42:44.948Z,11.46
2023-02-05T23:47:48.551Z,11.23
2023-02-05T23:52:53.843Z,11.32
2023-02-05T23:57:57.501Z,11.14
